Terminal Aerodrome Forecast
Issued by NWS

Home | Current Version | Previous Version | Text Only | Print | Product List | Glossary On
Versions: 1 2 3 4 5 6 7 8 9 10 11 12 13 14 15 16 17
000
FTUS46 KHNX 240620 CCA
TAFMCE
TAF COR
KMCE 240620Z 2406/2506 VRB03KT 2SM BR SKC
      TEMPO 2406/2408 1/2SM FG BKN003
     FM240800 VRB02KT 1/4SM FG VV002
     FM241700 VRB03KT 1SM BR OVC003
      TEMPO 2417/2419 1/2SM FG BKN005
     FM241900 VRB05KT 4SM HZ BKN200
     FM250200 16009KT 3SM BR OVC007 PROB30 2502/2506 1SM -DZ OVC050=

USA.gov is the U.S. government's official web portal to all federal, state and local government web resources and services.